createdAt,value
2019-06-08T00:01:18.438Z,15.60
2019-06-08T00:03:46.580Z,15.60
2019-06-08T00:06:14.460Z,15.70
2019-06-08T00:08:41.926Z,15.60
2019-06-08T00:11:09.358Z,15.70
2019-06-08T00:13:37.098Z,15.60
2019-06-08T00:16:04.694Z,15.50
2019-06-08T00:18:32.516Z,15.40
2019-06-08T00:21:00.046Z,15.40
2019-06-08T00:23:27.668Z,15.30
2019-06-08T00:25:55.268Z,15.20
2019-06-08T00:28:24.707Z,15.20
2019-06-08T00:30:52.305Z,15.20
2019-06-08T00:33:20.536Z,15.30
2019-06-08T00:35:48.350Z,15.40
2019-06-08T00:38:16.841Z,15.30
2019-06-08T00:40:44.959Z,15.30
2019-06-08T00:43:12.464Z,15.30
2019-06-08T00:45:40.009Z,15.30
2019-06-08T00:48:07.680Z,15.00
2019-06-08T00:50:35.147Z,15.00
2019-06-08T00:53:02.708Z,15.00
2019-06-08T00:55:30.217Z,15.00
2019-06-08T00:57:57.756Z,15.00
2019-06-08T01:00:26.632Z,15.00
2019-06-08T01:02:54.303Z,14.90
2019-06-08T01:05:22.037Z,14.90
2019-06-08T01:07:49.673Z,14.80
2019-06-08T01:10:19.204Z,14.80
2019-06-08T01:12:46.765Z,14.80
2019-06-08T01:15:16.269Z,14.80
2019-06-08T01:17:44.596Z,14.80
2019-06-08T01:20:12.411Z,15.80
2019-06-08T01:22:40.154Z,14.90
2019-06-08T01:25:07.797Z,15.20
2019-06-08T01:27:35.311Z,15.00
2019-06-08T01:30:03.661Z,15.10
2019-06-08T01:32:31.334Z,15.00
2019-06-08T01:34:58.888Z,14.90
2019-06-08T01:37:27.044Z,14.90
2019-06-08T01:39:54.771Z,15.00
2019-06-08T01:42:23.393Z,15.00
2019-06-08T01:44:51.034Z,15.10
2019-06-08T01:47:18.442Z,15.00
2019-06-08T01:49:46.432Z,15.00
2019-06-08T01:52:13.975Z,15.00
2019-06-08T01:54:41.474Z,15.00
2019-06-08T01:57:08.914Z,15.10
2019-06-08T01:59:36.341Z,15.10
2019-06-08T02:02:03.951Z,15.10
2019-06-08T02:04:32.975Z,15.10
2019-06-08T02:07:00.947Z,15.10
2019-06-08T02:09:29.126Z,15.10
2019-06-08T02:11:56.610Z,15.10
2019-06-08T02:14:25.047Z,15.00
2019-06-08T02:16:53.098Z,15.00
2019-06-08T02:19:20.570Z,15.00
2019-06-08T02:21:48.088Z,15.00
2019-06-08T02:24:15.630Z,15.00
2019-06-08T02:26:43.157Z,15.00
2019-06-08T02:29:11.441Z,15.00
2019-06-08T02:31:39.304Z,15.00
2019-06-08T02:34:07.142Z,15.00
2019-06-08T02:36:35.895Z,15.00
2019-06-08T02:39:06.613Z,15.00
2019-06-08T02:41:35.271Z,15.00
2019-06-08T02:44:02.987Z,15.00
2019-06-08T02:46:31.031Z,15.00
2019-06-08T02:49:03.898Z,15.10
2019-06-08T02:51:28.736Z,15.10
2019-06-08T02:53:57.272Z,15.10
2019-06-08T02:56:25.312Z,15.10
2019-06-08T02:58:54.970Z,15.20
2019-06-08T03:01:22.925Z,15.10
2019-06-08T03:03:52.298Z,15.20
2019-06-08T03:06:20.668Z,15.20
2019-06-08T03:08:49.679Z,15.20
2019-06-08T03:11:18.918Z,15.20
2019-06-08T03:13:47.415Z,15.20
2019-06-08T03:16:14.957Z,15.10
2019-06-08T03:18:42.898Z,15.20
2019-06-08T03:21:10.429Z,15.20
2019-06-08T03:23:38.801Z,15.40
2019-06-08T03:26:07.321Z,15.20
2019-06-08T03:28:37.134Z,15.20
2019-06-08T03:31:04.692Z,15.20
2019-06-08T03:33:34.544Z,15.20
2019-06-08T03:36:01.505Z,15.20
2019-06-08T03:38:29.332Z,15.20
2019-06-08T03:40:57.352Z,15.20
2019-06-08T03:43:24.841Z,15.20
2019-06-08T03:45:52.302Z,15.20
2019-06-08T03:48:20.431Z,15.20
2019-06-08T03:50:47.846Z,15.10
2019-06-08T03:53:15.367Z,14.90
2019-06-08T03:55:45.059Z,14.90
2019-06-08T03:58:12.519Z,14.80
2019-06-08T04:00:40.500Z,14.80
2019-06-08T04:03:08.124Z,14.80
2019-06-08T04:05:37.708Z,14.90
2019-06-08T04:08:04.953Z,14.90
2019-06-08T04:10:33.130Z,14.90
2019-06-08T04:13:00.649Z,15.00
2019-06-08T04:15:28.248Z,15.00
2019-06-08T04:17:55.777Z,15.00
2019-06-08T04:20:23.380Z,15.00
2019-06-08T04:22:50.919Z,15.00
2019-06-08T04:25:18.909Z,15.00
2019-06-08T04:27:46.978Z,15.10
2019-06-08T04:30:15.199Z,15.00
2019-06-08T04:32:42.923Z,15.00
2019-06-08T04:35:10.436Z,14.90
2019-06-08T04:37:38.431Z,14.90
2019-06-08T04:40:08.005Z,14.90
2019-06-08T04:42:35.481Z,14.80
2019-06-08T04:45:04.370Z,14.80
2019-06-08T04:47:31.921Z,14.80
2019-06-08T04:50:20.233Z,14.80
2019-06-08T04:52:29.692Z,14.80
2019-06-08T04:54:57.085Z,14.70
2019-06-08T04:57:24.565Z,14.70
2019-06-08T04:59:52.044Z,14.70
2019-06-08T05:02:19.615Z,14.70
2019-06-08T05:04:47.185Z,14.70
2019-06-08T05:07:14.689Z,14.70
2019-06-08T05:09:43.000Z,14.70
2019-06-08T05:12:10.881Z,14.80
2019-06-08T05:14:39.078Z,14.80
2019-06-08T05:17:07.047Z,14.90
2019-06-08T05:19:35.208Z,15.00
2019-06-08T05:22:02.965Z,15.10
2019-06-08T05:24:30.525Z,15.20
2019-06-08T05:26:58.022Z,15.20
2019-06-08T05:29:25.537Z,15.20
2019-06-08T05:31:53.053Z,15.20
2019-06-08T05:34:20.576Z,15.20
2019-06-08T05:36:48.397Z,15.10
2019-06-08T05:39:16.220Z,15.10
2019-06-08T05:41:43.744Z,15.00
2019-06-08T05:44:11.839Z,15.00
2019-06-08T05:46:39.692Z,15.00
2019-06-08T05:49:07.197Z,15.00
2019-06-08T05:51:34.753Z,14.90
2019-06-08T05:54:03.170Z,14.90
2019-06-08T05:56:30.666Z,14.90
2019-06-08T05:58:58.084Z,14.90
2019-06-08T06:01:25.638Z,14.90
2019-06-08T06:03:53.446Z,14.80
2019-06-08T06:06:20.975Z,14.80
2019-06-08T06:08:48.732Z,14.90
2019-06-08T06:11:16.383Z,14.90
2019-06-08T06:13:45.074Z,14.90
2019-06-08T06:16:13.393Z,15.00
2019-06-08T06:18:41.042Z,15.00
2019-06-08T06:21:11.730Z,15.00
2019-06-08T06:23:37.805Z,15.00
2019-06-08T06:26:05.314Z,15.00
2019-06-08T06:28:32.848Z,15.10
2019-06-08T06:31:00.303Z,15.20
2019-06-08T06:33:28.414Z,15.20
2019-06-08T06:35:55.895Z,15.10
2019-06-08T06:38:23.426Z,15.10
2019-06-08T06:40:52.093Z,15.00
2019-06-08T06:43:19.917Z,14.90
2019-06-08T06:45:48.014Z,14.80
2019-06-08T06:48:15.895Z,14.70
2019-06-08T06:50:44.341Z,14.60
2019-06-08T06:53:11.831Z,14.70
2019-06-08T06:55:39.634Z,14.70
2019-06-08T06:58:07.118Z,14.70
2019-06-08T07:00:34.900Z,14.80
2019-06-08T07:03:02.424Z,14.90
2019-06-08T07:05:30.195Z,15.00
2019-06-08T07:07:57.989Z,15.00
2019-06-08T07:10:25.641Z,15.10
2019-06-08T07:12:53.136Z,15.20
2019-06-08T07:15:26.370Z,15.30
2019-06-08T07:17:54.988Z,15.40
2019-06-08T07:20:22.549Z,15.50
2019-06-08T07:22:50.714Z,15.50
2019-06-08T07:25:18.663Z,15.60
2019-06-08T07:27:46.443Z,15.70
2019-06-08T07:30:14.576Z,15.70
2019-06-08T07:32:42.165Z,15.90
2019-06-08T07:35:10.290Z,16.00
2019-06-08T07:37:37.797Z,16.00
2019-06-08T07:40:05.315Z,16.10
2019-06-08T07:42:32.794Z,16.00
2019-06-08T07:45:00.590Z,16.10
2019-06-08T07:47:28.089Z,16.00
2019-06-08T07:49:55.709Z,16.10
2019-06-08T07:52:23.143Z,16.30
2019-06-08T07:54:52.907Z,16.20
2019-06-08T07:57:20.923Z,16.20
2019-06-08T07:59:49.055Z,16.30
2019-06-08T08:02:17.721Z,16.40
2019-06-08T08:04:45.566Z,16.50
2019-06-08T08:07:13.060Z,16.60
2019-06-08T08:09:41.149Z,16.70
2019-06-08T08:12:12.030Z,16.70
2019-06-08T08:14:37.960Z,16.60
2019-06-08T08:17:05.843Z,16.50
2019-06-08T08:19:33.391Z,16.70
2019-06-08T08:22:18.680Z,16.70
2019-06-08T08:24:30.617Z,16.80
2019-06-08T08:27:01.976Z,16.90
2019-06-08T08:29:28.234Z,17.10
2019-06-08T08:32:00.072Z,17.30
2019-06-08T08:34:28.283Z,17.50
2019-06-08T08:36:58.193Z,17.60
2019-06-08T08:39:27.490Z,17.50
2019-06-08T08:41:58.303Z,17.40
2019-06-08T08:44:24.057Z,17.60
2019-06-08T08:46:53.472Z,17.60
2019-06-08T08:49:21.295Z,17.70
2019-06-08T08:51:50.637Z,18.00
2019-06-08T08:54:18.432Z,18.10
2019-06-08T08:56:50.492Z,18.00
2019-06-08T08:59:17.779Z,17.70
2019-06-08T09:01:45.490Z,17.70
2019-06-08T09:04:12.962Z,17.70
2019-06-08T09:06:40.471Z,17.80
2019-06-08T09:09:08.941Z,18.50
2019-06-08T09:11:40.841Z,19.40
2019-06-08T09:14:10.919Z,19.60
2019-06-08T09:16:35.431Z,19.50
2019-06-08T09:19:04.528Z,19.20
2019-06-08T09:21:32.560Z,19.70
2019-06-08T09:24:03.500Z,19.90
2019-06-08T09:26:31.445Z,19.90
2019-06-08T09:29:01.075Z,19.60
2019-06-08T09:31:30.815Z,19.20
2019-06-08T09:34:08.638Z,19.20
2019-06-08T09:36:28.681Z,19.10
2019-06-08T09:38:59.652Z,18.90
2019-06-08T09:41:30.832Z,18.90
2019-06-08T09:43:58.162Z,19.10
2019-06-08T09:46:27.676Z,19.40
2019-06-08T09:48:58.358Z,20.80
2019-06-08T09:51:24.282Z,20.90
2019-06-08T09:53:54.218Z,22.20
2019-06-08T09:56:21.468Z,21.60
2019-06-08T09:58:51.427Z,22.20
2019-06-08T10:01:18.689Z,23.70
2019-06-08T10:03:48.117Z,25.10
2019-06-08T10:06:18.024Z,26.20
2019-06-08T10:08:44.758Z,26.40
2019-06-08T10:11:12.317Z,25.70
2019-06-08T10:13:43.248Z,24.10
2019-06-08T10:16:10.262Z,24.10
2019-06-08T10:18:38.707Z,24.60
2019-06-08T10:21:09.426Z,25.60
2019-06-08T10:23:38.677Z,26.50
2019-06-08T10:26:06.465Z,26.00
2019-06-08T10:28:34.401Z,26.40
2019-06-08T10:31:03.721Z,27.10
2019-06-08T10:33:31.577Z,27.80
2019-06-08T10:36:02.325Z,29.10
2019-06-08T10:38:29.120Z,27.90
2019-06-08T10:41:10.917Z,26.90
2019-06-08T10:43:34.733Z,27.30
2019-06-08T10:46:08.384Z,28.10
2019-06-08T10:48:31.567Z,28.60
2019-06-08T10:51:02.283Z,26.60
2019-06-08T10:53:45.147Z,25.20
2019-06-08T10:55:59.811Z,25.00
2019-06-08T10:58:28.344Z,25.60
2019-06-08T11:00:57.856Z,26.40
2019-06-08T11:03:25.742Z,27.40
2019-06-08T11:05:53.289Z,28.50
2019-06-08T11:08:20.845Z,28.60
2019-06-08T11:10:48.334Z,28.00
2019-06-08T11:13:18.726Z,28.40
2019-06-08T11:15:47.994Z,28.50
2019-06-08T11:18:14.362Z,28.70
2019-06-08T11:20:42.039Z,28.80
2019-06-08T11:23:12.304Z,29.40
2019-06-08T11:25:39.429Z,30.00
2019-06-08T11:28:11.879Z,30.90
2019-06-08T11:30:38.319Z,30.90
2019-06-08T11:33:06.160Z,30.60
2019-06-08T11:35:34.889Z,30.60
2019-06-08T11:38:09.133Z,30.50
2019-06-08T11:40:37.781Z,30.50
2019-06-08T11:43:04.635Z,30.60
2019-06-08T11:45:32.149Z,30.20
2019-06-08T11:48:00.471Z,31.50
2019-06-08T11:50:41.550Z,32.40
2019-06-08T11:53:07.165Z,32.40
2019-06-08T11:55:34.901Z,31.50
2019-06-08T11:58:02.924Z,31.70
2019-06-08T12:00:53.273Z,31.40
2019-06-08T12:03:20.711Z,31.90
2019-06-08T12:05:50.828Z,31.90
2019-06-08T12:08:20.740Z,32.10
2019-06-08T12:10:49.050Z,32.80
2019-06-08T12:13:17.707Z,32.50
2019-06-08T12:15:45.568Z,32.80
2019-06-08T12:18:14.155Z,32.60
2019-06-08T12:20:41.883Z,31.20
2019-06-08T12:23:10.012Z,30.10
2019-06-08T12:25:37.887Z,28.20
2019-06-08T12:28:06.434Z,26.50
2019-06-08T12:30:34.082Z,25.30
2019-06-08T12:33:01.686Z,24.40
2019-06-08T12:35:29.152Z,24.10
2019-06-08T12:37:58.081Z,23.80
2019-06-08T12:40:28.090Z,23.50
2019-06-08T12:42:59.481Z,23.40
2019-06-08T12:45:24.551Z,23.40
2019-06-08T12:47:52.135Z,23.60
2019-06-08T12:50:20.058Z,23.90
2019-06-08T12:52:48.117Z,24.20
2019-06-08T12:55:22.119Z,24.40
2019-06-08T12:57:45.267Z,24.20
2019-06-08T13:00:13.197Z,23.50
2019-06-08T13:02:40.772Z,23.40
2019-06-08T13:05:11.980Z,23.40
2019-06-08T13:07:38.623Z,23.40
2019-06-08T13:10:06.675Z,23.30
2019-06-08T13:12:34.189Z,23.50
2019-06-08T13:15:01.600Z,23.40
2019-06-08T13:17:29.202Z,23.40
2019-06-08T13:19:58.180Z,23.50
2019-06-08T13:22:29.004Z,23.20
2019-06-08T13:24:55.136Z,23.20
2019-06-08T13:27:23.281Z,23.40
2019-06-08T13:29:50.759Z,23.50
2019-06-08T13:32:19.869Z,23.40
2019-06-08T13:34:50.229Z,23.50
2019-06-08T13:37:18.913Z,23.70
2019-06-08T13:39:46.117Z,23.90
2019-06-08T13:42:13.571Z,22.80
2019-06-08T13:44:41.554Z,24.20
2019-06-08T13:47:11.913Z,24.30
2019-06-08T13:49:38.257Z,24.20
2019-06-08T13:52:07.791Z,24.40
2019-06-08T13:54:35.063Z,24.30
2019-06-08T13:57:02.487Z,24.30
2019-06-08T13:59:30.929Z,23.90
2019-06-08T14:01:58.506Z,24.00
2019-06-08T14:04:26.522Z,24.00
2019-06-08T14:06:54.014Z,23.80
2019-06-08T14:09:23.214Z,23.70
2019-06-08T14:11:51.111Z,23.80
2019-06-08T14:14:19.992Z,23.60
2019-06-08T14:16:50.570Z,23.40
2019-06-08T14:19:19.987Z,23.30
2019-06-08T14:21:47.976Z,23.50
2019-06-08T14:24:20.491Z,23.60
2019-06-08T14:26:44.817Z,23.90
2019-06-08T14:29:12.333Z,24.00
2019-06-08T14:31:39.807Z,24.00
2019-06-08T14:34:09.961Z,24.10
2019-06-08T14:36:40.622Z,23.50
2019-06-08T14:39:10.428Z,23.90
2019-06-08T14:41:35.634Z,23.80
2019-06-08T14:44:03.234Z,23.80
2019-06-08T14:46:30.634Z,23.90
2019-06-08T14:48:58.593Z,23.90
2019-06-08T14:51:47.802Z,23.70
2019-06-08T14:54:17.777Z,23.80
2019-06-08T14:56:44.382Z,24.10
2019-06-08T14:59:11.841Z,24.10
2019-06-08T15:01:39.381Z,24.00
2019-06-08T15:04:08.914Z,23.80
2019-06-08T15:06:38.183Z,23.70
2019-06-08T15:09:05.736Z,23.80
2019-06-08T15:11:35.151Z,23.90
2019-06-08T15:14:02.509Z,23.90
2019-06-08T15:16:32.498Z,24.00
2019-06-08T15:19:00.321Z,23.80
2019-06-08T15:21:32.424Z,23.80
2019-06-08T15:23:57.889Z,23.70
2019-06-08T15:26:35.887Z,23.60
2019-06-08T15:28:55.338Z,23.50
2019-06-08T15:31:23.066Z,23.50
2019-06-08T15:33:50.717Z,23.60
2019-06-08T15:36:20.494Z,23.60
2019-06-08T15:38:47.974Z,23.60
2019-06-08T15:41:20.752Z,23.50
2019-06-08T15:43:47.960Z,23.40
2019-06-08T15:46:14.701Z,23.60
2019-06-08T15:48:42.238Z,23.60
2019-06-08T15:51:09.691Z,23.30
2019-06-08T15:53:40.226Z,23.30
2019-06-08T15:56:08.459Z,23.40
2019-06-08T15:58:40.201Z,23.30
2019-06-08T16:01:05.439Z,23.30
2019-06-08T16:03:33.519Z,23.10
2019-06-08T16:06:01.091Z,23.20
2019-06-08T16:08:28.614Z,23.20
2019-06-08T16:10:56.124Z,23.40
2019-06-08T16:13:24.711Z,23.30
2019-06-08T16:15:52.669Z,23.30
2019-06-08T16:18:20.095Z,23.40
2019-06-08T16:20:47.595Z,23.30
2019-06-08T16:23:15.086Z,23.20
2019-06-08T16:25:42.593Z,23.20
2019-06-08T16:28:10.192Z,23.10
2019-06-08T16:30:39.348Z,23.10
2019-06-08T16:33:06.893Z,23.10
2019-06-08T16:35:35.778Z,23.20
2019-06-08T16:38:04.101Z,23.10
2019-06-08T16:40:32.061Z,23.10
2019-06-08T16:42:59.574Z,23.20
2019-06-08T16:45:27.059Z,23.10
2019-06-08T16:47:55.022Z,23.10
2019-06-08T16:50:24.857Z,23.00
2019-06-08T16:52:52.323Z,22.90
2019-06-08T16:55:19.866Z,22.80
2019-06-08T16:57:47.380Z,22.80
2019-06-08T17:00:30.762Z,22.80
2019-06-08T17:02:45.787Z,22.80
2019-06-08T17:05:13.204Z,22.80
2019-06-08T17:07:41.062Z,22.80
2019-06-08T17:10:09.256Z,22.70
2019-06-08T17:12:37.141Z,22.70
2019-06-08T17:15:05.075Z,22.70
2019-06-08T17:17:32.591Z,22.70
2019-06-08T17:20:00.208Z,22.60
2019-06-08T17:22:27.715Z,22.50
2019-06-08T17:24:55.751Z,22.50
2019-06-08T17:27:27.094Z,22.50
2019-06-08T17:29:52.997Z,22.40
2019-06-08T17:32:20.652Z,22.40
2019-06-08T17:34:48.156Z,22.40
2019-06-08T17:37:15.678Z,22.40
2019-06-08T17:39:43.186Z,22.30
2019-06-08T17:42:10.957Z,22.30
2019-06-08T17:44:38.467Z,22.20
2019-06-08T17:47:06.430Z,22.20
2019-06-08T17:49:34.519Z,22.10
2019-06-08T17:52:02.258Z,22.10
2019-06-08T17:54:29.777Z,22.00
2019-06-08T17:56:57.276Z,21.90
2019-06-08T17:59:24.788Z,21.80
2019-06-08T18:01:52.312Z,21.80
2019-06-08T18:04:19.861Z,21.70
2019-06-08T18:06:47.683Z,21.70
2019-06-08T18:09:17.351Z,21.60
2019-06-08T18:11:45.203Z,21.60
2019-06-08T18:14:14.328Z,21.50
2019-06-08T18:16:43.469Z,22.00
2019-06-08T18:19:39.804Z,21.40
2019-06-08T18:22:14.831Z,21.30
2019-06-08T18:24:37.903Z,21.20
2019-06-08T18:27:04.904Z,21.10
2019-06-08T18:29:32.689Z,21.10
2019-06-08T18:32:00.458Z,21.00
2019-06-08T18:34:28.681Z,20.90
2019-06-08T18:36:57.865Z,20.70
2019-06-08T18:39:27.328Z,20.60
2019-06-08T18:41:54.815Z,20.40
2019-06-08T18:44:22.632Z,20.30
2019-06-08T18:46:50.726Z,20.30
2019-06-08T18:49:18.449Z,20.20
2019-06-08T18:51:49.034Z,20.00
2019-06-08T18:54:18.790Z,19.90
2019-06-08T18:56:48.720Z,19.90
2019-06-08T18:59:17.648Z,19.70
2019-06-08T19:01:45.147Z,19.60
2019-06-08T19:04:14.116Z,19.60
2019-06-08T19:06:45.879Z,19.50
2019-06-08T19:09:13.439Z,19.60
2019-06-08T19:11:42.104Z,19.30
2019-06-08T19:14:11.523Z,19.20
2019-06-08T19:16:42.832Z,19.00
2019-06-08T19:19:08.676Z,18.90
2019-06-08T19:21:38.881Z,18.80
2019-06-08T19:24:09.617Z,18.60
2019-06-08T19:26:39.415Z,18.00
2019-06-08T19:29:07.590Z,18.40
2019-06-08T19:31:37.078Z,18.30
2019-06-08T19:34:04.660Z,18.20
2019-06-08T19:36:32.075Z,18.20
2019-06-08T19:38:59.838Z,18.10
2019-06-08T19:41:28.345Z,18.00
2019-06-08T19:43:58.410Z,17.90
2019-06-08T19:46:27.119Z,17.90
2019-06-08T19:48:55.821Z,17.80
2019-06-08T19:51:23.866Z,17.70
2019-06-08T19:53:52.915Z,17.50
2019-06-08T19:56:21.454Z,17.40
2019-06-08T19:59:00.387Z,17.30
2019-06-08T20:01:18.729Z,17.20
2019-06-08T20:03:46.989Z,17.20
2019-06-08T20:06:14.519Z,17.10
2019-06-08T20:08:42.963Z,17.00
2019-06-08T20:11:10.710Z,16.90
2019-06-08T20:13:38.391Z,16.90
2019-06-08T20:16:08.451Z,16.80
2019-06-08T20:18:37.555Z,16.80
2019-06-08T20:21:09.667Z,16.70
2019-06-08T20:23:34.616Z,16.60
2019-06-08T20:26:02.059Z,16.50
2019-06-08T20:28:29.594Z,16.40
2019-06-08T20:30:58.622Z,16.30
2019-06-08T20:33:27.207Z,16.30
2019-06-08T20:35:55.562Z,16.10
2019-06-08T20:38:37.028Z,16.10
2019-06-08T20:40:52.307Z,16.00
2019-06-08T20:43:19.868Z,15.90
2019-06-08T20:45:49.140Z,15.90
2019-06-08T20:48:18.229Z,15.80
2019-06-08T20:50:48.816Z,15.70
2019-06-08T20:53:17.626Z,15.50
2019-06-08T20:55:45.203Z,15.40
2019-06-08T20:58:13.262Z,15.40
2019-06-08T21:00:40.705Z,15.30
2019-06-08T21:03:08.420Z,15.30
2019-06-08T21:05:35.940Z,15.30
2019-06-08T21:08:03.539Z,15.20
2019-06-08T21:10:31.087Z,15.10
2019-06-08T21:12:58.985Z,15.10
2019-06-08T21:15:27.421Z,15.10
2019-06-08T21:17:55.553Z,15.00
2019-06-08T21:20:23.341Z,15.00
2019-06-08T21:22:53.415Z,14.90
2019-06-08T21:25:20.239Z,14.80
2019-06-08T21:27:48.535Z,14.70
2019-06-08T21:30:21.627Z,14.60
2019-06-08T21:32:50.337Z,14.60
2019-06-08T21:35:18.372Z,14.50
2019-06-08T21:37:48.168Z,14.50
2019-06-08T21:40:17.466Z,14.40
2019-06-08T21:42:44.435Z,14.40
2019-06-08T21:45:12.125Z,14.30
2019-06-08T21:47:40.041Z,14.30
2019-06-08T21:50:08.250Z,14.20
2019-06-08T21:52:35.849Z,14.10
2019-06-08T21:55:03.595Z,14.00
2019-06-08T21:57:31.399Z,14.00
2019-06-08T22:00:14.093Z,14.00
2019-06-08T22:02:28.171Z,13.90
2019-06-08T22:05:00.731Z,13.90
2019-06-08T22:07:25.050Z,13.90
2019-06-08T22:09:52.481Z,13.80
2019-06-08T22:12:19.955Z,13.80
2019-06-08T22:14:47.486Z,13.70
2019-06-08T22:17:16.141Z,13.70
2019-06-08T22:19:44.223Z,13.70
2019-06-08T22:22:11.719Z,13.50
2019-06-08T22:24:39.233Z,13.50
2019-06-08T22:27:08.544Z,13.50
2019-06-08T22:29:38.192Z,13.40
2019-06-08T22:32:07.455Z,13.40
2019-06-08T22:34:37.063Z,13.40
2019-06-08T22:37:03.997Z,13.30
2019-06-08T22:39:31.920Z,13.20
2019-06-08T22:42:01.195Z,13.20
2019-06-08T22:44:28.892Z,13.10
2019-06-08T22:46:59.577Z,13.00
2019-06-08T22:49:27.980Z,13.00
2019-06-08T22:51:58.052Z,12.90
2019-06-08T22:54:27.475Z,12.90
2019-06-08T22:56:55.325Z,12.50
2019-06-08T22:59:22.951Z,12.80
2019-06-08T23:01:50.447Z,12.80
2019-06-08T23:04:18.409Z,12.70
2019-06-08T23:06:47.631Z,12.70
2019-06-08T23:09:17.805Z,12.60
2019-06-08T23:11:44.423Z,12.50
2019-06-08T23:14:13.444Z,12.50
2019-06-08T23:16:41.474Z,12.40
2019-06-08T23:19:09.240Z,12.30
2019-06-08T23:21:38.256Z,12.30
2019-06-08T23:24:08.386Z,12.30
2019-06-08T23:26:37.157Z,12.30
2019-06-08T23:29:04.501Z,12.30
2019-06-08T23:31:32.689Z,12.30
2019-06-08T23:34:03.940Z,12.20
2019-06-08T23:36:46.757Z,12.20
2019-06-08T23:38:59.236Z,12.20
2019-06-08T23:41:27.454Z,12.10
2019-06-08T23:43:55.129Z,12.10
2019-06-08T23:46:22.504Z,12.00
2019-06-08T23:48:49.854Z,12.00
2019-06-08T23:51:18.064Z,11.90
2019-06-08T23:53:47.808Z,11.90
2019-06-08T23:56:15.078Z,11.80
2019-06-08T23:58:42.786Z,11.80
